Accueil
METAR-TAF:

METAR-TAF

Aéroports :

Aéroport international de Koweït

Koweït, Koweït

latitude: 29-13N, longitude: 047-59E, altitude: 55 m

Observation

Le bulletin a été fait il y a 26 minutes, à 16:00 UTC
Vent 3 kt de nord-est
Température 19°C
Humidité 26%
Pression 1019 hPa
Visibilité 10 km ou plus
pas de nuages en-dessous de 1500 mètres et pas de cumulonimbus.

METAR: OKBK 211600Z 04003KT CAVOK 19/M01 Q1019 NOSIG

Heure: 19:26 (16:26 UTC)

Prévision

Le bulletin a été fait il y a 5 heures et 41 minutes, à 10:45 UTC
Prévision valable du 21 à 12 UTC au 22 à 18 UTC
Vent 10 kt de nord-ouest
Visibilité: 7000 m
Ciel clair

TAF: OKBK 211045Z 2112/2218 32010KT 7000 SKC

Observations et prévisions météorologiques de plus de 4000 aéroports (messages METAR et TAF).

Les stations disponibles sont représentées par des disques jaunes et rouges sur la carte.

Passer la souris dessus pour voir le nom de la station.

Cliquer dessus pour voir les observations et prévisions météorologiques.

Pour changer de carte: cliquez sur les boutons verts avec une croix noire pour zoomer, sur le bouton vert avec un tiret pour effectuer un zoom arrière, ou sur les flèches vertes pour les cartes adjacentes.


METAR-TAF: